sensor_id;sensor_type;location;lat;lon;timestamp;temperature;humidity
17483;DHT22;8858;52.308;20.994;2022-10-19T00:01:41;13.10;99.90
17483;DHT22;8858;52.308;20.994;2022-10-19T00:04:10;13.10;99.90
17483;DHT22;8858;52.308;20.994;2022-10-19T00:06:39;13.00;99.90
17483;DHT22;8858;52.308;20.994;2022-10-19T00:09:11;13.00;99.90
17483;DHT22;8858;52.308;20.994;2022-10-19T00:11:43;13.00;99.90
17483;DHT22;8858;52.308;20.994;2022-10-19T00:14:14;13.00;99.90
17483;DHT22;8858;52.308;20.994;2022-10-19T00:16:43;12.90;99.90
17483;DHT22;8858;52.308;20.994;2022-10-19T00:19:15;12.90;99.90
17483;DHT22;8858;52.308;20.994;2022-10-19T00:21:46;12.80;99.90
17483;DHT22;8858;52.308;20.994;2022-10-19T00:24:15;12.80;99.90
17483;DHT22;8858;52.308;20.994;2022-10-19T00:26:44;12.80;99.90
17483;DHT22;8858;52.308;20.994;2022-10-19T00:29:15;12.70;99.90
17483;DHT22;8858;52.308;20.994;2022-10-19T00:31:43;12.70;99.90
17483;DHT22;8858;52.308;20.994;2022-10-19T00:34:13;12.60;99.90
17483;DHT22;8858;52.308;20.994;2022-10-19T00:36:41;12.60;99.90
17483;DHT22;8858;52.308;20.994;2022-10-19T00:39:12;12.60;99.90
17483;DHT22;8858;52.308;20.994;2022-10-19T00:41:44;12.50;99.90
17483;DHT22;8858;52.308;20.994;2022-10-19T00:47:15;12.40;99.90
17483;DHT22;8858;52.308;20.994;2022-10-19T00:49:46;12.40;99.90
17483;DHT22;8858;52.308;20.994;2022-10-19T00:52:18;12.30;99.90
17483;DHT22;8858;52.308;20.994;2022-10-19T00:54:48;12.20;99.90
17483;DHT22;8858;52.308;20.994;2022-10-19T00:57:22;12.20;99.90
17483;DHT22;8858;52.308;20.994;2022-10-19T00:59:51;12.20;99.90
17483;DHT22;8858;52.308;20.994;2022-10-19T01:02:20;12.20;99.90
17483;DHT22;8858;52.308;20.994;2022-10-19T01:04:50;12.10;99.90
17483;DHT22;8858;52.308;20.994;2022-10-19T01:07:19;12.00;99.90
17483;DHT22;8858;52.308;20.994;2022-10-19T01:09:47;12.00;99.90
17483;DHT22;8858;52.308;20.994;2022-10-19T01:12:49;11.90;99.90
17483;DHT22;8858;52.308;20.994;2022-10-19T01:15:27;11.90;99.90
17483;DHT22;8858;52.308;20.994;2022-10-19T01:18:04;11.90;99.90
17483;DHT22;8858;52.308;20.994;2022-10-19T01:21:02;11.90;99.90
17483;DHT22;8858;52.308;20.994;2022-10-19T01:26:48;11.90;99.90
17483;DHT22;8858;52.308;20.994;2022-10-19T01:29:33;11.90;99.90
17483;DHT22;8858;52.308;20.994;2022-10-19T01:32:15;11.90;99.90
17483;DHT22;8858;52.308;20.994;2022-10-19T01:34:49;11.90;99.90
17483;DHT22;8858;52.308;20.994;2022-10-19T01:37:24;12.00;99.90
17483;DHT22;8858;52.308;20.994;2022-10-19T01:40:04;12.00;99.90
17483;DHT22;8858;52.308;20.994;2022-10-19T01:42:41;12.00;99.90
17483;DHT22;8858;52.308;20.994;2022-10-19T01:45:16;12.00;99.90
17483;DHT22;8858;52.308;20.994;2022-10-19T01:47:50;12.00;99.90
17483;DHT22;8858;52.308;20.994;2022-10-19T01:50:26;11.90;99.90
17483;DHT22;8858;52.308;20.994;2022-10-19T01:52:56;11.90;99.90
17483;DHT22;8858;52.308;20.994;2022-10-19T01:55:26;11.90;99.90
17483;DHT22;8858;52.308;20.994;2022-10-19T01:57:58;11.90;99.90
17483;DHT22;8858;52.308;20.994;2022-10-19T02:00:30;11.90;99.90
17483;DHT22;8858;52.308;20.994;2022-10-19T02:03:03;11.90;99.90
17483;DHT22;8858;52.308;20.994;2022-10-19T02:05:33;11.90;99.90
17483;DHT22;8858;52.308;20.994;2022-10-19T02:08:11;11.90;99.90
17483;DHT22;8858;52.308;20.994;2022-10-19T02:10:42;11.90;99.90
17483;DHT22;8858;52.308;20.994;2022-10-19T02:13:14;11.90;99.90
17483;DHT22;8858;52.308;20.994;2022-10-19T02:15:50;11.90;99.90
17483;DHT22;8858;52.308;20.994;2022-10-19T02:18:25;11.90;99.90
17483;DHT22;8858;52.308;20.994;2022-10-19T02:20:56;11.90;99.90
17483;DHT22;8858;52.308;20.994;2022-10-19T02:23:27;11.90;99.90
17483;DHT22;8858;52.308;20.994;2022-10-19T02:25:55;11.90;99.90
17483;DHT22;8858;52.308;20.994;2022-10-19T02:28:26;11.80;99.90
17483;DHT22;8858;52.308;20.994;2022-10-19T02:30:56;11.90;99.90
17483;DHT22;8858;52.308;20.994;2022-10-19T02:33:28;11.80;99.90
17483;DHT22;8858;52.308;20.994;2022-10-19T02:35:57;11.80;99.90
17483;DHT22;8858;52.308;20.994;2022-10-19T02:38:30;11.80;99.90
17483;DHT22;8858;52.308;20.994;2022-10-19T02:41:06;11.70;99.90
17483;DHT22;8858;52.308;20.994;2022-10-19T02:43:41;11.70;99.90
17483;DHT22;8858;52.308;20.994;2022-10-19T02:46:17;11.70;99.90
17483;DHT22;8858;52.308;20.994;2022-10-19T02:48:51;11.60;99.90
17483;DHT22;8858;52.308;20.994;2022-10-19T02:51:27;11.60;99.90
17483;DHT22;8858;52.308;20.994;2022-10-19T02:53:56;11.50;99.90
17483;DHT22;8858;52.308;20.994;2022-10-19T02:56:31;11.50;99.90
17483;DHT22;8858;52.308;20.994;2022-10-19T02:59:03;11.50;99.90
17483;DHT22;8858;52.308;20.994;2022-10-19T03:01:34;11.40;99.90
17483;DHT22;8858;52.308;20.994;2022-10-19T03:04:05;11.40;99.90
17483;DHT22;8858;52.308;20.994;2022-10-19T03:06:34;11.40;99.90
17483;DHT22;8858;52.308;20.994;2022-10-19T03:09:02;11.40;99.90
17483;DHT22;8858;52.308;20.994;2022-10-19T03:11:33;11.30;99.90
17483;DHT22;8858;52.308;20.994;2022-10-19T03:14:05;11.30;99.90
17483;DHT22;8858;52.308;20.994;2022-10-19T03:16:33;11.30;99.90
17483;DHT22;8858;52.308;20.994;2022-10-19T03:19:02;11.20;99.90
17483;DHT22;8858;52.308;20.994;2022-10-19T03:21:32;11.20;99.90
17483;DHT22;8858;52.308;20.994;2022-10-19T03:24:01;11.20;99.90
17483;DHT22;8858;52.308;20.994;2022-10-19T03:26:31;11.20;99.90
17483;DHT22;8858;52.308;20.994;2022-10-19T03:29:00;11.20;99.90
17483;DHT22;8858;52.308;20.994;2022-10-19T03:31:28;11.20;99.90
17483;DHT22;8858;52.308;20.994;2022-10-19T03:33:56;11.30;99.90
17483;DHT22;8858;52.308;20.994;2022-10-19T03:36:29;11.20;99.90
17483;DHT22;8858;52.308;20.994;2022-10-19T03:39:04;11.20;99.90
17483;DHT22;8858;52.308;20.994;2022-10-19T03:41:37;11.20;99.90
17483;DHT22;8858;52.308;20.994;2022-10-19T03:44:10;11.20;99.90
17483;DHT22;8858;52.308;20.994;2022-10-19T03:46:39;11.20;99.90
17483;DHT22;8858;52.308;20.994;2022-10-19T03:49:07;11.20;99.90
17483;DHT22;8858;52.308;20.994;2022-10-19T03:51:37;11.20;99.90
17483;DHT22;8858;52.308;20.994;2022-10-19T03:54:11;11.30;99.90
17483;DHT22;8858;52.308;20.994;2022-10-19T03:56:41;11.20;99.90
17483;DHT22;8858;52.308;20.994;2022-10-19T03:59:13;11.20;99.90
17483;DHT22;8858;52.308;20.994;2022-10-19T04:01:46;11.20;99.90
17483;DHT22;8858;52.308;20.994;2022-10-19T04:04:19;11.20;99.90
17483;DHT22;8858;52.308;20.994;2022-10-19T04:06:48;11.30;99.90
17483;DHT22;8858;52.308;20.994;2022-10-19T04:09:20;11.30;99.90
17483;DHT22;8858;52.308;20.994;2022-10-19T04:11:49;11.30;99.90
17483;DHT22;8858;52.308;20.994;2022-10-19T04:14:19;11.30;99.90
17483;DHT22;8858;52.308;20.994;2022-10-19T04:16:59;11.30;99.90
17483;DHT22;8858;52.308;20.994;2022-10-19T04:19:30;11.30;99.90
17483;DHT22;8858;52.308;20.994;2022-10-19T04:21:58;11.20;99.90
17483;DHT22;8858;52.308;20.994;2022-10-19T04:24:29;11.20;99.90
17483;DHT22;8858;52.308;20.994;2022-10-19T04:26:57;11.20;99.90
17483;DHT22;8858;52.308;20.994;2022-10-19T04:29:26;11.20;99.90
17483;DHT22;8858;52.308;20.994;2022-10-19T04:31:57;11.20;99.90
17483;DHT22;8858;52.308;20.994;2022-10-19T04:34:25;11.20;99.90
17483;DHT22;8858;52.308;20.994;2022-10-19T04:36:59;11.20;99.90
17483;DHT22;8858;52.308;20.994;2022-10-19T04:39:30;11.20;99.90
17483;DHT22;8858;52.308;20.994;2022-10-19T04:41:58;11.20;99.90
17483;DHT22;8858;52.308;20.994;2022-10-19T04:44:27;11.20;99.90
17483;DHT22;8858;52.308;20.994;2022-10-19T04:46:56;11.20;99.90
17483;DHT22;8858;52.308;20.994;2022-10-19T04:49:24;11.20;99.90
17483;DHT22;8858;52.308;20.994;2022-10-19T04:51:52;11.30;99.90
17483;DHT22;8858;52.308;20.994;2022-10-19T04:54:21;11.20;99.90
17483;DHT22;8858;52.308;20.994;2022-10-19T04:56:50;11.20;99.90
17483;DHT22;8858;52.308;20.994;2022-10-19T04:59:19;11.30;99.90
17483;DHT22;8858;52.308;20.994;2022-10-19T05:01:50;11.20;99.90
17483;DHT22;8858;52.308;20.994;2022-10-19T05:04:19;11.20;99.90
17483;DHT22;8858;52.308;20.994;2022-10-19T05:06:47;11.20;99.90
17483;DHT22;8858;52.308;20.994;2022-10-19T05:09:16;11.20;99.90
17483;DHT22;8858;52.308;20.994;2022-10-19T05:11:48;11.20;99.90
17483;DHT22;8858;52.308;20.994;2022-10-19T05:14:21;11.20;99.90
17483;DHT22;8858;52.308;20.994;2022-10-19T05:16:50;11.20;99.90
17483;DHT22;8858;52.308;20.994;2022-10-19T05:19:18;11.20;99.90
17483;DHT22;8858;52.308;20.994;2022-10-19T05:21:47;11.20;99.90
17483;DHT22;8858;52.308;20.994;2022-10-19T05:24:17;11.20;99.90
17483;DHT22;8858;52.308;20.994;2022-10-19T05:26:48;11.30;99.90
17483;DHT22;8858;52.308;20.994;2022-10-19T05:29:17;11.30;99.90
17483;DHT22;8858;52.308;20.994;2022-10-19T05:31:48;11.20;99.90
17483;DHT22;8858;52.308;20.994;2022-10-19T05:34:16;11.20;99.90
17483;DHT22;8858;52.308;20.994;2022-10-19T05:36:45;11.20;99.90
17483;DHT22;8858;52.308;20.994;2022-10-19T05:39:17;11.20;99.90
17483;DHT22;8858;52.308;20.994;2022-10-19T05:41:46;11.20;99.90
17483;DHT22;8858;52.308;20.994;2022-10-19T05:44:16;11.20;99.90
17483;DHT22;8858;52.308;20.994;2022-10-19T05:46:45;11.20;99.90
17483;DHT22;8858;52.308;20.994;2022-10-19T05:49:17;11.20;99.90
17483;DHT22;8858;52.308;20.994;2022-10-19T05:51:46;11.20;99.90
17483;DHT22;8858;52.308;20.994;2022-10-19T05:54:15;11.20;99.90
17483;DHT22;8858;52.308;20.994;2022-10-19T05:56:43;11.20;99.90
17483;DHT22;8858;52.308;20.994;2022-10-19T05:59:14;11.20;99.90
17483;DHT22;8858;52.308;20.994;2022-10-19T06:01:45;11.20;99.90
17483;DHT22;8858;52.308;20.994;2022-10-19T06:04:15;11.20;99.90
17483;DHT22;8858;52.308;20.994;2022-10-19T06:06:46;11.20;99.90
17483;DHT22;8858;52.308;20.994;2022-10-19T06:09:15;11.20;99.90
17483;DHT22;8858;52.308;20.994;2022-10-19T06:11:43;11.20;99.90
17483;DHT22;8858;52.308;20.994;2022-10-19T06:14:13;11.20;99.90
17483;DHT22;8858;52.308;20.994;2022-10-19T06:16:42;11.20;99.90
17483;DHT22;8858;52.308;20.994;2022-10-19T06:19:16;11.20;99.90
17483;DHT22;8858;52.308;20.994;2022-10-19T06:21:47;11.20;99.90
17483;DHT22;8858;52.308;20.994;2022-10-19T06:24:16;11.20;99.90
17483;DHT22;8858;52.308;20.994;2022-10-19T06:26:45;11.30;99.90
17483;DHT22;8858;52.308;20.994;2022-10-19T06:29:14;11.30;99.90
17483;DHT22;8858;52.308;20.994;2022-10-19T06:31:42;11.30;99.90
17483;DHT22;8858;52.308;20.994;2022-10-19T06:34:16;11.30;99.90
17483;DHT22;8858;52.308;20.994;2022-10-19T06:36:44;11.30;99.90
17483;DHT22;8858;52.308;20.994;2022-10-19T06:39:13;11.30;99.90
17483;DHT22;8858;52.308;20.994;2022-10-19T06:41:41;11.30;99.90
17483;DHT22;8858;52.308;20.994;2022-10-19T06:44:23;11.40;99.90
17483;DHT22;8858;52.308;20.994;2022-10-19T06:46:52;11.30;99.90
17483;DHT22;8858;52.308;20.994;2022-10-19T06:49:22;11.30;99.90
17483;DHT22;8858;52.308;20.994;2022-10-19T06:51:54;11.30;99.90
17483;DHT22;8858;52.308;20.994;2022-10-19T06:54:23;11.30;99.90
17483;DHT22;8858;52.308;20.994;2022-10-19T06:56:51;11.40;99.90
17483;DHT22;8858;52.308;20.994;2022-10-19T06:59:20;11.40;99.90
17483;DHT22;8858;52.308;20.994;2022-10-19T07:01:49;11.40;99.90
17483;DHT22;8858;52.308;20.994;2022-10-19T07:04:23;11.40;99.90
17483;DHT22;8858;52.308;20.994;2022-10-19T07:06:54;11.40;99.90
17483;DHT22;8858;52.308;20.994;2022-10-19T07:09:23;11.40;99.90
17483;DHT22;8858;52.308;20.994;2022-10-19T07:11:51;11.40;99.90
17483;DHT22;8858;52.308;20.994;2022-10-19T07:14:20;11.40;99.90
17483;DHT22;8858;52.308;20.994;2022-10-19T07:16:50;11.40;99.90
17483;DHT22;8858;52.308;20.994;2022-10-19T07:19:19;11.40;99.90
17483;DHT22;8858;52.308;20.994;2022-10-19T07:21:51;11.40;99.90
17483;DHT22;8858;52.308;20.994;2022-10-19T07:24:20;11.40;99.90
17483;DHT22;8858;52.308;20.994;2022-10-19T07:26:49;11.50;99.90
17483;DHT22;8858;52.308;20.994;2022-10-19T07:29:17;11.50;99.90
17483;DHT22;8858;52.308;20.994;2022-10-19T07:31:46;11.60;99.90
17483;DHT22;8858;52.308;20.994;2022-10-19T07:34:15;11.60;99.90
17483;DHT22;8858;52.308;20.994;2022-10-19T07:36:45;11.60;99.90
17483;DHT22;8858;52.308;20.994;2022-10-19T07:39:16;11.60;99.90
17483;DHT22;8858;52.308;20.994;2022-10-19T07:41:45;11.60;99.90
17483;DHT22;8858;52.308;20.994;2022-10-19T07:44:14;11.70;99.90
17483;DHT22;8858;52.308;20.994;2022-10-19T07:46:43;11.70;99.90
17483;DHT22;8858;52.308;20.994;2022-10-19T07:49:13;11.80;99.90
17483;DHT22;8858;52.308;20.994;2022-10-19T07:51:43;11.80;99.90
17483;DHT22;8858;52.308;20.994;2022-10-19T07:54:21;11.90;99.90
17483;DHT22;8858;52.308;20.994;2022-10-19T07:56:50;11.90;99.90
17483;DHT22;8858;52.308;20.994;2022-10-19T07:59:22;11.90;99.90
17483;DHT22;8858;52.308;20.994;2022-10-19T08:01:54;11.90;99.90
17483;DHT22;8858;52.308;20.994;2022-10-19T08:04:23;11.90;99.90
17483;DHT22;8858;52.308;20.994;2022-10-19T08:07:12;12.00;99.90
17483;DHT22;8858;52.308;20.994;2022-10-19T08:09:43;12.00;99.90
17483;DHT22;8858;52.308;20.994;2022-10-19T08:12:19;12.00;99.90
17483;DHT22;8858;52.308;20.994;2022-10-19T08:14:48;12.10;99.90
17483;DHT22;8858;52.308;20.994;2022-10-19T08:17:19;12.10;99.90
17483;DHT22;8858;52.308;20.994;2022-10-19T08:19:51;12.10;99.90
17483;DHT22;8858;52.308;20.994;2022-10-19T08:22:19;12.10;99.90
17483;DHT22;8858;52.308;20.994;2022-10-19T08:24:49;12.10;99.90
17483;DHT22;8858;52.308;20.994;2022-10-19T08:27:21;12.00;99.90
17483;DHT22;8858;52.308;20.994;2022-10-19T08:29:50;12.00;99.90
17483;DHT22;8858;52.308;20.994;2022-10-19T08:32:22;11.90;99.90
17483;DHT22;8858;52.308;20.994;2022-10-19T08:34:50;11.90;99.90
17483;DHT22;8858;52.308;20.994;2022-10-19T08:37:19;11.80;99.90
17483;DHT22;8858;52.308;20.994;2022-10-19T08:40:17;11.80;99.90
17483;DHT22;8858;52.308;20.994;2022-10-19T08:42:51;11.90;99.90
17483;DHT22;8858;52.308;20.994;2022-10-19T08:45:32;11.90;99.90
17483;DHT22;8858;52.308;20.994;2022-10-19T08:48:22;11.80;99.90
17483;DHT22;8858;52.308;20.994;2022-10-19T08:50:53;11.80;99.90
17483;DHT22;8858;52.308;20.994;2022-10-19T08:53:30;11.80;99.90
17483;DHT22;8858;52.308;20.994;2022-10-19T08:56:19;11.70;99.90
17483;DHT22;8858;52.308;20.994;2022-10-19T08:59:14;11.80;99.90
17483;DHT22;8858;52.308;20.994;2022-10-19T09:01:50;11.80;99.90
17483;DHT22;8858;52.308;20.994;2022-10-19T09:04:23;11.70;99.90
17483;DHT22;8858;52.308;20.994;2022-10-19T09:07:20;11.70;99.90
17483;DHT22;8858;52.308;20.994;2022-10-19T09:09:56;11.70;99.90
17483;DHT22;8858;52.308;20.994;2022-10-19T09:12:34;11.80;99.90
17483;DHT22;8858;52.308;20.994;2022-10-19T09:15:09;11.80;99.90
17483;DHT22;8858;52.308;20.994;2022-10-19T09:17:38;11.80;99.90
17483;DHT22;8858;52.308;20.994;2022-10-19T09:20:16;11.90;99.90
17483;DHT22;8858;52.308;20.994;2022-10-19T09:22:50;11.90;99.90
17483;DHT22;8858;52.308;20.994;2022-10-19T09:25:24;12.00;99.90
17483;DHT22;8858;52.308;20.994;2022-10-19T09:28:05;12.10;99.90
17483;DHT22;8858;52.308;20.994;2022-10-19T09:30:41;12.10;99.90
17483;DHT22;8858;52.308;20.994;2022-10-19T09:33:20;12.20;99.90
17483;DHT22;8858;52.308;20.994;2022-10-19T09:35:52;12.30;99.90
17483;DHT22;8858;52.308;20.994;2022-10-19T09:38:26;12.30;99.90
17483;DHT22;8858;52.308;20.994;2022-10-19T09:40:57;12.40;99.90
17483;DHT22;8858;52.308;20.994;2022-10-19T09:43:30;12.40;99.90
17483;DHT22;8858;52.308;20.994;2022-10-19T09:46:03;12.50;99.90
17483;DHT22;8858;52.308;20.994;2022-10-19T09:48:48;12.60;99.90
17483;DHT22;8858;52.308;20.994;2022-10-19T09:51:17;12.70;99.90
17483;DHT22;8858;52.308;20.994;2022-10-19T09:53:48;12.70;99.90
17483;DHT22;8858;52.308;20.994;2022-10-19T09:56:20;12.60;99.90
17483;DHT22;8858;52.308;20.994;2022-10-19T09:58:56;12.60;99.90
17483;DHT22;8858;52.308;20.994;2022-10-19T10:01:31;12.40;99.90
17483;DHT22;8858;52.308;20.994;2022-10-19T10:04:10;12.30;99.90
17483;DHT22;8858;52.308;20.994;2022-10-19T10:06:43;12.10;99.90
17483;DHT22;8858;52.308;20.994;2022-10-19T10:09:14;12.10;99.90
17483;DHT22;8858;52.308;20.994;2022-10-19T10:11:47;12.00;99.90
17483;DHT22;8858;52.308;20.994;2022-10-19T10:14:22;11.90;99.90
17483;DHT22;8858;52.308;20.994;2022-10-19T10:16:54;11.90;99.90
17483;DHT22;8858;52.308;20.994;2022-10-19T10:19:27;11.90;99.90
17483;DHT22;8858;52.308;20.994;2022-10-19T10:21:59;11.80;99.90
17483;DHT22;8858;52.308;20.994;2022-10-19T10:24:33;11.90;99.90
17483;DHT22;8858;52.308;20.994;2022-10-19T10:27:03;11.90;99.90
17483;DHT22;8858;52.308;20.994;2022-10-19T10:29:35;12.00;99.90
17483;DHT22;8858;52.308;20.994;2022-10-19T10:32:07;12.00;99.90
17483;DHT22;8858;52.308;20.994;2022-10-19T10:34:40;12.10;99.90
17483;DHT22;8858;52.308;20.994;2022-10-19T10:37:27;12.20;99.90
17483;DHT22;8858;52.308;20.994;2022-10-19T10:39:59;12.20;99.90
17483;DHT22;8858;52.308;20.994;2022-10-19T10:42:33;12.30;99.90
17483;DHT22;8858;52.308;20.994;2022-10-19T10:45:16;12.40;99.90
17483;DHT22;8858;52.308;20.994;2022-10-19T10:47:47;12.50;99.90
17483;DHT22;8858;52.308;20.994;2022-10-19T10:50:20;12.60;99.90
17483;DHT22;8858;52.308;20.994;2022-10-19T10:53:00;12.70;99.90
17483;DHT22;8858;52.308;20.994;2022-10-19T10:55:29;12.70;99.90
17483;DHT22;8858;52.308;20.994;2022-10-19T10:58:06;12.80;99.90
17483;DHT22;8858;52.308;20.994;2022-10-19T11:00:39;12.80;99.90
17483;DHT22;8858;52.308;20.994;2022-10-19T11:03:15;12.90;99.90
17483;DHT22;8858;52.308;20.994;2022-10-19T11:05:48;13.00;99.90
17483;DHT22;8858;52.308;20.994;2022-10-19T11:08:23;13.00;99.90
17483;DHT22;8858;52.308;20.994;2022-10-19T11:10:56;12.90;99.90
17483;DHT22;8858;52.308;20.994;2022-10-19T11:13:30;12.80;99.90
17483;DHT22;8858;52.308;20.994;2022-10-19T11:16:10;12.70;99.90
17483;DHT22;8858;52.308;20.994;2022-10-19T11:18:41;12.80;99.90
17483;DHT22;8858;52.308;20.994;2022-10-19T11:21:14;12.80;99.90
17483;DHT22;8858;52.308;20.994;2022-10-19T11:23:54;12.80;99.90
17483;DHT22;8858;52.308;20.994;2022-10-19T11:26:38;12.90;99.90
17483;DHT22;8858;52.308;20.994;2022-10-19T11:29:20;12.90;99.90
17483;DHT22;8858;52.308;20.994;2022-10-19T11:31:54;13.00;99.90
17483;DHT22;8858;52.308;20.994;2022-10-19T11:34:38;13.10;99.90
17483;DHT22;8858;52.308;20.994;2022-10-19T11:37:20;13.20;99.90
17483;DHT22;8858;52.308;20.994;2022-10-19T11:40:00;13.40;99.90
17483;DHT22;8858;52.308;20.994;2022-10-19T11:42:43;13.40;99.90
17483;DHT22;8858;52.308;20.994;2022-10-19T11:45:20;13.50;99.90
17483;DHT22;8858;52.308;20.994;2022-10-19T11:48:03;13.60;99.90
17483;DHT22;8858;52.308;20.994;2022-10-19T11:50:39;13.70;99.90
17483;DHT22;8858;52.308;20.994;2022-10-19T11:53:26;13.90;99.90
17483;DHT22;8858;52.308;20.994;2022-10-19T11:56:02;14.00;99.90
17483;DHT22;8858;52.308;20.994;2022-10-19T11:58:43;14.10;99.90
17483;DHT22;8858;52.308;20.994;2022-10-19T12:01:27;14.10;99.90
17483;DHT22;8858;52.308;20.994;2022-10-19T12:04:25;13.90;99.90
17483;DHT22;8858;52.308;20.994;2022-10-19T12:07:03;13.90;99.90
17483;DHT22;8858;52.308;20.994;2022-10-19T12:09:41;13.90;99.90
17483;DHT22;8858;52.308;20.994;2022-10-19T12:12:21;13.80;99.90
17483;DHT22;8858;52.308;20.994;2022-10-19T12:14:53;13.80;99.90
17483;DHT22;8858;52.308;20.994;2022-10-19T12:17:31;13.70;99.90
17483;DHT22;8858;52.308;20.994;2022-10-19T12:20:14;13.70;99.90
17483;DHT22;8858;52.308;20.994;2022-10-19T12:22:47;13.70;99.90
17483;DHT22;8858;52.308;20.994;2022-10-19T12:25:16;13.60;99.90
17483;DHT22;8858;52.308;20.994;2022-10-19T12:27:46;13.40;99.90
17483;DHT22;8858;52.308;20.994;2022-10-19T12:30:20;13.30;99.90
17483;DHT22;8858;52.308;20.994;2022-10-19T12:32:59;13.20;99.90
17483;DHT22;8858;52.308;20.994;2022-10-19T12:35:45;13.30;99.90
17483;DHT22;8858;52.308;20.994;2022-10-19T12:38:21;13.30;99.90
17483;DHT22;8858;52.308;20.994;2022-10-19T12:41:02;13.40;99.90
17483;DHT22;8858;52.308;20.994;2022-10-19T12:43:39;13.50;99.90
17483;DHT22;8858;52.308;20.994;2022-10-19T12:46:19;13.70;99.90
17483;DHT22;8858;52.308;20.994;2022-10-19T12:51:59;13.90;99.90
17483;DHT22;8858;52.308;20.994;2022-10-19T12:54:33;14.00;99.90
17483;DHT22;8858;52.308;20.994;2022-10-19T12:57:25;14.10;99.90
17483;DHT22;8858;52.308;20.994;2022-10-19T13:00:00;14.20;99.90
17483;DHT22;8858;52.308;20.994;2022-10-19T13:02:31;14.30;99.90
17483;DHT22;8858;52.308;20.994;2022-10-19T13:05:01;14.40;99.90
17483;DHT22;8858;52.308;20.994;2022-10-19T13:07:33;14.40;99.90
17483;DHT22;8858;52.308;20.994;2022-10-19T13:10:05;14.50;99.90
17483;DHT22;8858;52.308;20.994;2022-10-19T13:12:42;14.50;99.90
17483;DHT22;8858;52.308;20.994;2022-10-19T13:21:48;14.90;99.90
17483;DHT22;8858;52.308;20.994;2022-10-19T13:24:35;15.00;99.90
17483;DHT22;8858;52.308;20.994;2022-10-19T13:27:23;15.00;99.90
17483;DHT22;8858;52.308;20.994;2022-10-19T13:29:52;15.00;99.90
17483;DHT22;8858;52.308;20.994;2022-10-19T13:32:40;14.90;99.90
17483;DHT22;8858;52.308;20.994;2022-10-19T13:35:29;14.70;99.90
17483;DHT22;8858;52.308;20.994;2022-10-19T13:38:26;14.40;99.90
17483;DHT22;8858;52.308;20.994;2022-10-19T13:41:02;14.10;99.90
17483;DHT22;8858;52.308;20.994;2022-10-19T13:43:33;13.90;99.90
17483;DHT22;8858;52.308;20.994;2022-10-19T13:46:08;13.80;99.90
17483;DHT22;8858;52.308;20.994;2022-10-19T13:48:51;13.60;99.90
17483;DHT22;8858;52.308;20.994;2022-10-19T13:51:30;13.50;99.90
17483;DHT22;8858;52.308;20.994;2022-10-19T13:54:09;13.40;99.90
17483;DHT22;8858;52.308;20.994;2022-10-19T13:57:02;13.20;99.90
17483;DHT22;8858;52.308;20.994;2022-10-19T14:03:01;12.80;99.90
17483;DHT22;8858;52.308;20.994;2022-10-19T14:11:46;12.50;99.90
17483;DHT22;8858;52.308;20.994;2022-10-19T14:14:19;12.50;99.90
17483;DHT22;8858;52.308;20.994;2022-10-19T14:16:52;12.30;99.90
17483;DHT22;8858;52.308;20.994;2022-10-19T14:19:29;12.30;99.90
17483;DHT22;8858;52.308;20.994;2022-10-19T14:21:59;12.20;99.90
17483;DHT22;8858;52.308;20.994;2022-10-19T14:24:31;12.10;99.90
17483;DHT22;8858;52.308;20.994;2022-10-19T14:27:00;12.10;99.90
17483;DHT22;8858;52.308;20.994;2022-10-19T14:29:35;12.00;99.90
17483;DHT22;8858;52.308;20.994;2022-10-19T14:32:09;11.90;99.90
17483;DHT22;8858;52.308;20.994;2022-10-19T14:34:40;11.90;99.90
17483;DHT22;8858;52.308;20.994;2022-10-19T14:37:16;11.90;99.90
17483;DHT22;8858;52.308;20.994;2022-10-19T14:39:58;11.80;99.90
17483;DHT22;8858;52.308;20.994;2022-10-19T14:42:39;11.80;99.90
17483;DHT22;8858;52.308;20.994;2022-10-19T14:45:18;11.70;99.90
17483;DHT22;8858;52.308;20.994;2022-10-19T14:47:53;11.70;99.90
17483;DHT22;8858;52.308;20.994;2022-10-19T14:50:26;11.60;99.90
17483;DHT22;8858;52.308;20.994;2022-10-19T14:53:06;11.60;99.90
17483;DHT22;8858;52.308;20.994;2022-10-19T14:55:38;11.50;99.90
17483;DHT22;8858;52.308;20.994;2022-10-19T14:58:16;11.60;99.90
17483;DHT22;8858;52.308;20.994;2022-10-19T15:00:48;11.50;99.90
17483;DHT22;8858;52.308;20.994;2022-10-19T15:03:21;11.50;99.90
17483;DHT22;8858;52.308;20.994;2022-10-19T15:05:54;11.40;99.90
17483;DHT22;8858;52.308;20.994;2022-10-19T15:08:29;11.40;99.90
17483;DHT22;8858;52.308;20.994;2022-10-19T15:10:58;11.30;99.90
17483;DHT22;8858;52.308;20.994;2022-10-19T15:13:32;11.30;99.90
17483;DHT22;8858;52.308;20.994;2022-10-19T15:16:24;11.30;99.90
17483;DHT22;8858;52.308;20.994;2022-10-19T15:18:53;11.30;99.90
17483;DHT22;8858;52.308;20.994;2022-10-19T15:21:22;11.20;99.90
17483;DHT22;8858;52.308;20.994;2022-10-19T15:23:51;11.20;99.90
17483;DHT22;8858;52.308;20.994;2022-10-19T15:26:26;11.20;99.90
17483;DHT22;8858;52.308;20.994;2022-10-19T15:29:06;11.20;99.90
17483;DHT22;8858;52.308;20.994;2022-10-19T15:31:36;11.10;99.90
17483;DHT22;8858;52.308;20.994;2022-10-19T15:34:05;11.10;99.90
17483;DHT22;8858;52.308;20.994;2022-10-19T15:36:36;11.10;99.90
17483;DHT22;8858;52.308;20.994;2022-10-19T15:39:06;11.10;99.90
17483;DHT22;8858;52.308;20.994;2022-10-19T15:41:51;11.10;99.90
17483;DHT22;8858;52.308;20.994;2022-10-19T15:44:31;11.10;99.90
17483;DHT22;8858;52.308;20.994;2022-10-19T15:47:19;11.10;99.90
17483;DHT22;8858;52.308;20.994;2022-10-19T15:49:57;11.10;99.90
17483;DHT22;8858;52.308;20.994;2022-10-19T15:52:27;11.10;99.90
17483;DHT22;8858;52.308;20.994;2022-10-19T15:54:58;11.10;99.90
17483;DHT22;8858;52.308;20.994;2022-10-19T15:57:33;11.10;99.90
17483;DHT22;8858;52.308;20.994;2022-10-19T16:00:10;11.10;99.90
17483;DHT22;8858;52.308;20.994;2022-10-19T16:02:41;11.00;99.90
17483;DHT22;8858;52.308;20.994;2022-10-19T16:05:13;10.90;99.90
17483;DHT22;8858;52.308;20.994;2022-10-19T16:07:41;10.90;99.90
17483;DHT22;8858;52.308;20.994;2022-10-19T16:10:15;10.80;99.90
17483;DHT22;8858;52.308;20.994;2022-10-19T16:12:44;10.80;99.90
17483;DHT22;8858;52.308;20.994;2022-10-19T16:15:15;10.80;99.90
17483;DHT22;8858;52.308;20.994;2022-10-19T16:17:53;10.80;99.90
17483;DHT22;8858;52.308;20.994;2022-10-19T16:20:22;10.80;99.90
17483;DHT22;8858;52.308;20.994;2022-10-19T16:22:51;10.70;99.90
17483;DHT22;8858;52.308;20.994;2022-10-19T16:25:20;10.70;99.90
17483;DHT22;8858;52.308;20.994;2022-10-19T16:27:49;10.70;99.90
17483;DHT22;8858;52.308;20.994;2022-10-19T16:30:20;10.60;99.90
17483;DHT22;8858;52.308;20.994;2022-10-19T16:32:51;10.60;99.90
17483;DHT22;8858;52.308;20.994;2022-10-19T16:35:20;10.60;99.90